createdAt,value
2023-03-07T00:02:17.521Z,13.65
2023-03-07T00:04:46.213Z,13.90
2023-03-07T00:07:13.307Z,13.30
2023-03-07T00:09:39.949Z,12.30
2023-03-07T00:12:08.478Z,13.88
2023-03-07T00:14:35.450Z,15.88
2023-03-07T00:17:02.166Z,15.00
2023-03-07T00:19:28.918Z,14.85
2023-03-07T00:21:55.524Z,14.60
2023-03-07T00:24:22.133Z,16.50
2023-03-07T00:26:48.693Z,16.17
2023-03-07T00:29:15.307Z,15.00
2023-03-07T00:31:41.997Z,15.38
2023-03-07T00:34:08.847Z,14.90
2023-03-07T00:36:38.677Z,14.63
2023-03-07T00:39:05.360Z,16.17
2023-03-07T00:41:31.927Z,15.75
2023-03-07T00:43:58.514Z,14.70
2023-03-07T00:46:26.013Z,13.93
2023-03-07T00:48:53.297Z,15.55
2023-03-07T00:51:21.310Z,14.02
2023-03-07T00:53:48.672Z,14.35
2023-03-07T00:56:18.878Z,13.55
2023-03-07T00:58:46.942Z,14.05
2023-03-07T01:01:17.129Z,13.75
2023-03-07T01:03:44.504Z,15.20
2023-03-07T01:06:15.526Z,14.55
2023-03-07T01:08:42.534Z,15.80
2023-03-07T01:11:10.637Z,14.98
2023-03-07T01:13:37.822Z,14.48
2023-03-07T01:16:16.672Z,15.95
2023-03-07T01:18:44.613Z,15.27
2023-03-07T01:21:14.232Z,14.35
2023-03-07T01:23:40.852Z,14.55
2023-03-07T01:26:07.529Z,15.23
2023-03-07T01:28:34.157Z,15.35
2023-03-07T01:31:01.040Z,14.93
2023-03-07T01:33:27.658Z,14.75
2023-03-07T01:35:54.434Z,15.43
2023-03-07T01:38:21.073Z,13.98
2023-03-07T01:40:47.697Z,14.73
2023-03-07T01:43:24.684Z,15.82
2023-03-07T01:45:51.487Z,15.35
2023-03-07T01:48:18.249Z,15.52
2023-03-07T01:50:44.982Z,15.60
2023-03-07T01:53:11.885Z,14.57
2023-03-07T01:55:38.862Z,14.90
2023-03-07T01:58:10.818Z,14.82
2023-03-07T02:00:38.837Z,15.23
2023-03-07T02:03:11.252Z,14.50
2023-03-07T02:05:47.601Z,14.32
2023-03-07T02:08:16.590Z,15.10
2023-03-07T02:10:43.492Z,14.75
2023-03-07T02:13:10.599Z,14.88
2023-03-07T02:15:37.592Z,14.60
2023-03-07T02:18:05.846Z,14.93
2023-03-07T02:20:36.796Z,15.48
2023-03-07T02:23:04.787Z,14.25
2023-03-07T02:26:03.322Z,14.85
2023-03-07T02:28:30.514Z,15.65
2023-03-07T02:31:00.332Z,14.52
2023-03-07T02:33:27.328Z,15.30
2023-03-07T02:35:59.866Z,14.65
2023-03-07T02:38:26.591Z,14.82
2023-03-07T02:40:55.517Z,14.93
2023-03-07T02:43:22.982Z,14.95
2023-03-07T02:45:49.980Z,14.98
2023-03-07T02:48:16.729Z,15.00
2023-03-07T02:50:43.310Z,14.82
2023-03-07T02:53:09.936Z,14.32
2023-03-07T02:55:36.497Z,15.57
2023-03-07T02:58:03.084Z,15.75
2023-03-07T03:00:30.245Z,15.07
2023-03-07T03:02:56.864Z,13.77
2023-03-07T03:05:23.520Z,14.35
2023-03-07T03:07:50.177Z,13.68
2023-03-07T03:10:17.379Z,14.27
2023-03-07T03:12:44.529Z,13.60
2023-03-07T03:15:12.133Z,14.00
2023-03-07T03:17:39.359Z,15.35
2023-03-07T03:20:11.694Z,15.45
2023-03-07T03:22:40.646Z,14.82
2023-03-07T03:25:10.007Z,14.05
2023-03-07T03:27:38.181Z,14.23
2023-03-07T03:30:06.791Z,14.90
2023-03-07T03:32:33.677Z,14.43
2023-03-07T03:35:00.495Z,14.02
2023-03-07T03:37:27.257Z,13.98
2023-03-07T03:39:54.470Z,13.85
2023-03-07T03:42:21.085Z,13.27
2023-03-07T03:44:47.706Z,15.10
2023-03-07T03:47:14.322Z,13.77
2023-03-07T03:49:41.256Z,14.05
2023-03-07T03:52:08.040Z,15.38
2023-03-07T03:54:34.891Z,14.57
2023-03-07T03:57:01.503Z,15.25
2023-03-07T03:59:28.138Z,14.50
2023-03-07T04:01:55.337Z,14.15
2023-03-07T04:04:22.760Z,15.27
2023-03-07T04:06:49.389Z,14.15
2023-03-07T04:09:15.977Z,14.85
2023-03-07T04:11:42.543Z,14.45
2023-03-07T04:14:09.146Z,14.32
2023-03-07T04:16:35.787Z,14.73
2023-03-07T04:19:02.802Z,14.43
2023-03-07T04:21:29.424Z,16.02
2023-03-07T04:23:58.332Z,14.45
2023-03-07T04:26:24.982Z,14.48
2023-03-07T04:28:51.629Z,14.50
2023-03-07T04:31:23.825Z,14.77
2023-03-07T04:33:55.616Z,13.88
2023-03-07T04:36:23.386Z,15.50
2023-03-07T04:38:53.600Z,14.38
2023-03-07T04:41:23.533Z,15.98
2023-03-07T04:43:50.175Z,14.75
2023-03-07T04:46:18.650Z,15.50
2023-03-07T04:48:46.301Z,15.35
2023-03-07T04:51:13.496Z,15.90
2023-03-07T04:53:40.203Z,14.73
2023-03-07T04:56:08.436Z,16.63
2023-03-07T04:58:35.565Z,15.70
2023-03-07T05:01:03.685Z,15.85
2023-03-07T05:03:30.788Z,14.35
2023-03-07T05:06:02.704Z,15.07
2023-03-07T05:08:29.639Z,14.55
2023-03-07T05:10:57.921Z,15.38
2023-03-07T05:13:24.601Z,14.93
2023-03-07T05:15:53.186Z,15.40
2023-03-07T05:18:20.181Z,16.10
2023-03-07T05:20:47.443Z,14.77
2023-03-07T05:23:14.172Z,15.48
2023-03-07T05:25:43.174Z,15.23
2023-03-07T05:28:10.636Z,16.20
2023-03-07T05:30:37.241Z,14.75
2023-03-07T05:33:03.903Z,16.13
2023-03-07T05:35:30.731Z,15.23
2023-03-07T05:37:57.348Z,15.80
2023-03-07T05:40:24.731Z,14.95
2023-03-07T05:42:51.448Z,16.77
2023-03-07T05:45:18.179Z,16.85
2023-03-07T05:47:44.789Z,17.35
2023-03-07T05:50:11.819Z,15.65
2023-03-07T05:52:38.512Z,17.10
2023-03-07T05:55:05.699Z,16.98
2023-03-07T05:57:32.612Z,16.58
2023-03-07T05:59:59.217Z,16.08
2023-03-07T06:02:25.882Z,15.82
2023-03-07T06:04:52.482Z,16.52
2023-03-07T06:07:19.124Z,18.83
2023-03-07T06:09:45.743Z,17.63
2023-03-07T06:12:12.331Z,16.15
2023-03-07T06:14:38.925Z,15.52
2023-03-07T06:17:05.978Z,15.65
2023-03-07T06:19:32.678Z,15.63
2023-03-07T06:21:59.504Z,17.27
2023-03-07T06:24:26.059Z,17.15
2023-03-07T06:26:52.778Z,16.92
2023-03-07T06:29:19.368Z,17.08
2023-03-07T06:31:46.007Z,17.75
2023-03-07T06:34:12.987Z,16.83
2023-03-07T06:36:40.367Z,16.13
2023-03-07T06:39:07.549Z,17.98
2023-03-07T06:41:34.180Z,17.73
2023-03-07T06:44:00.856Z,17.33
2023-03-07T06:46:27.675Z,17.42
2023-03-07T06:48:55.220Z,16.67
2023-03-07T06:51:22.117Z,17.77
2023-03-07T06:53:48.678Z,17.88
2023-03-07T06:56:15.533Z,18.20
2023-03-07T06:58:42.109Z,16.13
2023-03-07T07:01:15.928Z,15.15
2023-03-07T07:03:42.576Z,16.15
2023-03-07T07:06:09.201Z,15.50
2023-03-07T07:08:35.886Z,14.95
2023-03-07T07:11:02.473Z,15.00
2023-03-07T07:13:29.118Z,13.65
2023-03-07T07:15:55.745Z,13.70
2023-03-07T07:18:22.379Z,13.68
2023-03-07T07:20:56.542Z,13.70
2023-03-07T07:23:23.249Z,12.80
2023-03-07T07:25:49.827Z,13.25
2023-03-07T07:28:16.423Z,13.00
2023-03-07T07:30:43.414Z,13.20
2023-03-07T07:33:10.088Z,14.02
2023-03-07T07:35:36.995Z,13.75
2023-03-07T07:38:03.878Z,13.05
2023-03-07T07:40:30.748Z,12.95
2023-03-07T07:42:57.422Z,13.18
2023-03-07T07:45:24.404Z,15.10
2023-03-07T07:47:52.005Z,13.60
2023-03-07T07:50:20.392Z,13.18
2023-03-07T07:52:47.723Z,13.40
2023-03-07T07:55:14.931Z,13.88
2023-03-07T07:57:42.379Z,13.38
2023-03-07T08:00:11.692Z,12.57
2023-03-07T08:02:38.863Z,12.52
2023-03-07T08:05:07.993Z,11.90
2023-03-07T08:07:34.616Z,13.23
2023-03-07T08:10:01.176Z,12.13
2023-03-07T08:12:28.102Z,11.18
2023-03-07T08:14:54.778Z,11.82
2023-03-07T08:17:21.355Z,11.57
2023-03-07T08:19:47.962Z,12.55
2023-03-07T08:22:14.586Z,11.20
2023-03-07T08:24:41.300Z,10.73
2023-03-07T08:27:09.073Z,10.98
2023-03-07T08:29:35.741Z,10.10
2023-03-07T08:32:02.451Z,10.20
2023-03-07T08:34:33.593Z,10.10
2023-03-07T08:37:00.193Z,10.43
2023-03-07T08:39:30.035Z,11.52
2023-03-07T08:41:56.932Z,10.73
2023-03-07T08:44:23.668Z,10.70
2023-03-07T08:46:50.219Z,10.07
2023-03-07T08:49:16.922Z,9.70
2023-03-07T08:51:43.534Z,10.45
2023-03-07T08:54:10.122Z,8.95
2023-03-07T08:56:36.719Z,10.40
2023-03-07T08:59:03.334Z,9.65
2023-03-07T09:01:29.971Z,10.02
2023-03-07T09:03:56.668Z,10.95
2023-03-07T09:06:24.072Z,9.50
2023-03-07T09:08:51.000Z,9.77
2023-03-07T09:11:18.234Z,9.75
2023-03-07T09:13:51.913Z,10.05
2023-03-07T09:16:21.091Z,9.93
2023-03-07T09:18:47.794Z,10.50
2023-03-07T09:21:14.633Z,9.45
2023-03-07T09:23:43.316Z,8.55
2023-03-07T09:26:10.321Z,8.27
2023-03-07T09:28:36.909Z,7.82
2023-03-07T09:31:08.839Z,7.30
2023-03-07T09:33:35.545Z,8.30
2023-03-07T09:36:05.836Z,8.88
2023-03-07T09:38:32.564Z,8.95
2023-03-07T09:41:14.606Z,8.43
2023-03-07T09:43:51.609Z,7.32
2023-03-07T09:46:28.671Z,7.50
2023-03-07T09:49:15.120Z,8.73
2023-03-07T09:51:44.054Z,8.23
2023-03-07T09:54:16.188Z,7.50
2023-03-07T09:56:50.271Z,8.50
2023-03-07T09:59:34.061Z,7.55
2023-03-07T10:02:06.120Z,8.10
2023-03-07T10:04:46.974Z,8.05
2023-03-07T10:07:16.011Z,7.82
2023-03-07T10:09:45.560Z,8.43
2023-03-07T10:12:42.582Z,8.50
2023-03-07T10:15:30.284Z,8.15
2023-03-07T10:18:10.265Z,8.45
2023-03-07T10:20:45.086Z,8.50
2023-03-07T10:23:24.757Z,7.80
2023-03-07T10:26:15.098Z,8.80
2023-03-07T10:28:44.648Z,8.35
2023-03-07T10:31:26.540Z,8.13
2023-03-07T10:33:54.976Z,8.38
2023-03-07T10:36:29.477Z,8.35
2023-03-07T10:39:03.564Z,8.32
2023-03-07T10:41:30.542Z,8.80
2023-03-07T10:43:57.753Z,8.18
2023-03-07T10:46:28.228Z,8.60
2023-03-07T10:49:03.664Z,8.07
2023-03-07T10:51:53.307Z,8.65
2023-03-07T10:54:24.214Z,8.20
2023-03-07T10:57:02.815Z,8.00
2023-03-07T10:59:29.434Z,8.38
2023-03-07T11:01:58.994Z,7.35
2023-03-07T11:04:28.369Z,7.20
2023-03-07T11:07:02.446Z,7.32
2023-03-07T11:09:34.820Z,7.78
2023-03-07T11:12:20.139Z,9.15
2023-03-07T11:14:49.462Z,8.43
2023-03-07T11:17:27.654Z,8.40
2023-03-07T11:19:56.145Z,8.45
2023-03-07T11:22:36.660Z,8.25
2023-03-07T11:25:19.038Z,8.50
2023-03-07T11:27:45.644Z,8.93
2023-03-07T11:30:30.469Z,8.30
2023-03-07T11:33:08.161Z,8.68
2023-03-07T11:35:49.823Z,8.30
2023-03-07T11:38:28.327Z,8.55
2023-03-07T11:41:10.050Z,8.48
2023-03-07T11:43:52.855Z,8.02
2023-03-07T11:46:52.454Z,8.35
2023-03-07T11:49:37.361Z,7.50
2023-03-07T11:52:20.146Z,8.02
2023-03-07T11:55:15.573Z,7.90
2023-03-07T11:58:12.631Z,7.88
2023-03-07T12:00:52.173Z,8.07
2023-03-07T12:03:20.747Z,8.27
2023-03-07T12:06:10.612Z,9.18
2023-03-07T12:08:51.368Z,8.48
2023-03-07T12:11:38.910Z,8.57
2023-03-07T12:14:21.941Z,8.65
2023-03-07T12:17:03.766Z,8.70
2023-03-07T12:19:53.912Z,8.90
2023-03-07T12:22:28.500Z,8.85
2023-03-07T12:25:09.241Z,9.27
2023-03-07T12:27:41.821Z,10.10
2023-03-07T12:30:23.337Z,9.48
2023-03-07T12:32:51.353Z,8.80
2023-03-07T12:35:26.797Z,9.00
2023-03-07T12:38:04.595Z,9.33
2023-03-07T12:40:44.613Z,8.90
2023-03-07T12:43:30.152Z,9.05
2023-03-07T12:46:12.230Z,10.10
2023-03-07T12:48:47.629Z,9.40
2023-03-07T12:51:22.249Z,9.07
2023-03-07T12:53:57.738Z,10.40
2023-03-07T12:56:34.082Z,8.90
2023-03-07T13:01:32.434Z,9.23
2023-03-07T13:04:26.613Z,9.07
2023-03-07T13:06:55.932Z,9.15
2023-03-07T13:09:24.205Z,9.48
2023-03-07T13:12:24.676Z,9.30
2023-03-07T13:15:04.801Z,9.85
2023-03-07T13:17:31.538Z,10.52
2023-03-07T13:20:14.519Z,9.43
2023-03-07T13:22:41.062Z,9.98
2023-03-07T13:25:23.907Z,9.15
2023-03-07T13:27:54.048Z,9.18
2023-03-07T13:30:30.124Z,9.73
2023-03-07T13:33:01.213Z,10.00
2023-03-07T13:35:28.984Z,9.68
2023-03-07T13:38:03.668Z,10.02
2023-03-07T13:40:46.643Z,9.05
2023-03-07T13:43:28.680Z,9.85
2023-03-07T13:45:58.494Z,10.10
2023-03-07T13:48:25.261Z,9.68
2023-03-07T13:50:51.832Z,9.68
2023-03-07T13:53:36.507Z,11.98
2023-03-07T13:56:19.935Z,8.85
2023-03-07T13:58:53.188Z,9.98
2023-03-07T14:01:23.662Z,10.07
2023-03-07T14:03:54.641Z,9.68
2023-03-07T14:06:32.196Z,9.02
2023-03-07T14:09:02.568Z,9.13
2023-03-07T14:11:51.824Z,9.68
2023-03-07T14:14:49.590Z,9.60
2023-03-07T14:17:29.386Z,9.70
2023-03-07T14:20:24.764Z,9.25
2023-03-07T14:23:06.644Z,8.85
2023-03-07T14:25:36.489Z,9.15
2023-03-07T14:28:19.734Z,9.52
2023-03-07T14:30:58.946Z,9.50
2023-03-07T14:33:34.751Z,9.27
2023-03-07T14:36:04.904Z,9.52
2023-03-07T14:38:32.966Z,9.65
2023-03-07T14:41:06.827Z,9.82
2023-03-07T14:43:55.174Z,9.48
2023-03-07T14:46:26.133Z,8.98
2023-03-07T14:48:56.998Z,9.68
2023-03-07T14:51:27.131Z,10.18
2023-03-07T14:53:55.019Z,9.90
2023-03-07T14:56:27.356Z,9.57
2023-03-07T14:58:59.766Z,10.02
2023-03-07T15:01:32.098Z,10.38
2023-03-07T15:03:58.900Z,10.10
2023-03-07T15:06:27.940Z,10.50
2023-03-07T15:08:57.360Z,10.18
2023-03-07T15:11:38.141Z,9.73
2023-03-07T15:14:13.182Z,10.65
2023-03-07T15:16:44.145Z,9.27
2023-03-07T15:19:23.019Z,9.88
2023-03-07T15:21:55.106Z,10.55
2023-03-07T15:24:30.224Z,10.43
2023-03-07T15:26:58.332Z,10.35
2023-03-07T15:29:28.625Z,10.95
2023-03-07T15:32:03.941Z,10.38
2023-03-07T15:34:34.356Z,10.83
2023-03-07T15:37:20.550Z,10.52
2023-03-07T15:39:55.894Z,10.52
2023-03-07T15:42:22.826Z,11.15
2023-03-07T15:44:54.351Z,10.88
2023-03-07T15:47:21.450Z,11.10
2023-03-07T15:49:51.075Z,11.63
2023-03-07T15:52:22.037Z,10.57
2023-03-07T15:54:52.737Z,11.77
2023-03-07T15:57:23.351Z,10.57
2023-03-07T15:59:55.799Z,10.15
2023-03-07T16:02:39.931Z,10.90
2023-03-07T16:05:28.764Z,10.73
2023-03-07T16:07:57.313Z,11.88
2023-03-07T16:10:28.191Z,10.95
2023-03-07T16:12:55.559Z,12.18
2023-03-07T16:15:23.870Z,10.70
2023-03-07T16:17:55.002Z,11.98
2023-03-07T16:20:26.930Z,11.00
2023-03-07T16:22:53.789Z,10.60
2023-03-07T16:25:22.083Z,10.77
2023-03-07T16:27:53.268Z,10.02
2023-03-07T16:30:23.797Z,11.20
2023-03-07T16:32:50.821Z,10.85
2023-03-07T16:35:27.503Z,11.52
2023-03-07T16:37:55.151Z,11.90
2023-03-07T16:40:22.892Z,12.00
2023-03-07T16:42:53.687Z,10.85
2023-03-07T16:45:24.819Z,11.30
2023-03-07T16:47:53.515Z,11.63
2023-03-07T16:50:25.584Z,10.75
2023-03-07T16:52:52.291Z,10.63
2023-03-07T16:55:19.961Z,11.95
2023-03-07T16:57:51.161Z,12.10
2023-03-07T17:00:20.938Z,12.52
2023-03-07T17:02:48.969Z,12.88
2023-03-07T17:05:21.198Z,13.95
2023-03-07T17:07:47.868Z,14.40
2023-03-07T17:10:15.019Z,12.88
2023-03-07T17:12:42.593Z,12.88
2023-03-07T17:15:14.295Z,15.18
2023-03-07T17:17:41.828Z,17.42
2023-03-07T17:20:11.969Z,16.50
2023-03-07T17:22:38.653Z,17.88
2023-03-07T17:25:05.776Z,15.07
2023-03-07T17:27:34.948Z,15.35
2023-03-07T17:30:01.697Z,15.38
2023-03-07T17:32:28.386Z,13.98
2023-03-07T17:34:55.023Z,13.75
2023-03-07T17:37:22.049Z,14.63
2023-03-07T17:39:48.775Z,15.38
2023-03-07T17:42:15.412Z,15.18
2023-03-07T17:44:42.096Z,13.00
2023-03-07T17:47:08.777Z,13.15
2023-03-07T17:49:38.121Z,13.73
2023-03-07T17:52:06.269Z,12.90
2023-03-07T17:54:33.341Z,13.27
2023-03-07T17:57:00.933Z,12.55
2023-03-07T17:59:27.646Z,12.70
2023-03-07T18:01:54.415Z,13.45
2023-03-07T18:04:21.051Z,13.07
2023-03-07T18:06:48.096Z,14.23
2023-03-07T18:09:15.384Z,14.93
2023-03-07T18:11:42.120Z,13.25
2023-03-07T18:14:08.739Z,13.43
2023-03-07T18:16:35.325Z,12.68
2023-03-07T18:19:04.773Z,14.15
2023-03-07T18:21:32.288Z,14.30
2023-03-07T18:23:58.890Z,15.05
2023-03-07T18:26:25.913Z,16.05
2023-03-07T18:28:54.181Z,15.27
2023-03-07T18:31:25.228Z,15.85
2023-03-07T18:33:53.055Z,16.52
2023-03-07T18:36:21.589Z,17.63
2023-03-07T18:38:49.013Z,14.70
2023-03-07T18:41:19.273Z,15.68
2023-03-07T18:43:46.131Z,15.75
2023-03-07T18:46:16.564Z,16.20
2023-03-07T18:48:43.326Z,15.73
2023-03-07T18:51:13.307Z,14.93
2023-03-07T18:53:40.805Z,13.45
2023-03-07T18:56:12.928Z,14.40
2023-03-07T18:58:40.511Z,13.52
2023-03-07T19:01:10.588Z,14.63
2023-03-07T19:03:37.256Z,16.27
2023-03-07T19:06:03.959Z,16.48
2023-03-07T19:08:30.789Z,15.27
2023-03-07T19:10:57.455Z,15.20
2023-03-07T19:13:24.072Z,15.00
2023-03-07T19:15:50.664Z,15.80
2023-03-07T19:18:17.250Z,16.00
2023-03-07T19:20:43.862Z,15.40
2023-03-07T19:23:10.433Z,14.60
2023-03-07T19:25:37.109Z,13.70
2023-03-07T19:28:03.690Z,13.88
2023-03-07T19:30:32.951Z,14.23
2023-03-07T19:32:59.587Z,13.10
2023-03-07T19:35:26.195Z,14.68
2023-03-07T19:37:52.785Z,15.07
2023-03-07T19:40:19.477Z,14.30
2023-03-07T19:42:47.381Z,13.88
2023-03-07T19:45:13.965Z,12.30
2023-03-07T19:47:40.543Z,12.68
2023-03-07T19:50:07.652Z,13.88
2023-03-07T19:52:34.278Z,14.70
2023-03-07T19:55:00.823Z,12.93
2023-03-07T19:57:27.425Z,12.80
2023-03-07T19:59:54.312Z,14.30
2023-03-07T20:02:22.276Z,13.32
2023-03-07T20:04:49.754Z,12.65
2023-03-07T20:07:16.523Z,12.15
2023-03-07T20:09:43.121Z,12.50
2023-03-07T20:12:10.277Z,12.88
2023-03-07T20:14:42.636Z,11.50
2023-03-07T20:17:11.144Z,12.60
2023-03-07T20:19:38.564Z,12.70
2023-03-07T20:22:05.811Z,11.45
2023-03-07T20:24:33.290Z,12.63
2023-03-07T20:27:00.410Z,12.35
2023-03-07T20:29:36.816Z,12.82
2023-03-07T20:35:09.893Z,12.05
2023-03-07T20:37:53.349Z,12.25
2023-03-07T20:40:21.453Z,11.25
2023-03-07T20:43:08.976Z,11.77
2023-03-07T20:45:38.784Z,12.40
2023-03-07T20:48:05.364Z,12.77
2023-03-07T20:50:46.843Z,14.27
2023-03-07T20:53:30.813Z,14.60
2023-03-07T20:56:03.277Z,12.90
2023-03-07T20:58:30.920Z,15.32
2023-03-07T21:01:04.615Z,14.65
2023-03-07T21:03:31.256Z,14.98
2023-03-07T21:06:00.486Z,18.77
2023-03-07T21:08:29.319Z,16.27
2023-03-07T21:11:19.727Z,13.93
2023-03-07T21:13:54.909Z,12.43
2023-03-07T21:16:34.115Z,14.45
2023-03-07T21:19:21.109Z,13.25
2023-03-07T21:22:02.064Z,13.85
2023-03-07T21:24:46.761Z,13.93
2023-03-07T21:27:31.932Z,13.63
2023-03-07T21:30:14.043Z,13.23
2023-03-07T21:32:49.080Z,11.90
2023-03-07T21:35:26.760Z,12.40
2023-03-07T21:37:53.414Z,12.82
2023-03-07T21:40:21.672Z,12.55
2023-03-07T21:42:48.278Z,12.82
2023-03-07T21:45:15.090Z,13.48
2023-03-07T21:47:41.690Z,13.38
2023-03-07T21:50:09.021Z,13.18
2023-03-07T21:52:35.605Z,12.50
2023-03-07T21:55:02.210Z,13.75
2023-03-07T21:57:29.468Z,13.48
2023-03-07T21:59:56.075Z,13.45
2023-03-07T22:02:23.082Z,12.57
2023-03-07T22:04:50.611Z,13.60
2023-03-07T22:07:17.257Z,12.82
2023-03-07T22:09:43.865Z,13.15
2023-03-07T22:12:10.434Z,13.18
2023-03-07T22:14:37.062Z,12.52
2023-03-07T22:17:03.699Z,13.90
2023-03-07T22:19:30.299Z,13.00
2023-03-07T22:21:56.913Z,13.50
2023-03-07T22:24:23.534Z,13.60
2023-03-07T22:26:50.162Z,13.85
2023-03-07T22:29:16.790Z,14.63
2023-03-07T22:31:43.445Z,13.25
2023-03-07T22:34:10.069Z,14.45
2023-03-07T22:36:36.708Z,14.00
2023-03-07T22:39:03.723Z,13.30
2023-03-07T22:41:48.633Z,12.30
2023-03-07T22:44:30.480Z,11.90
2023-03-07T22:47:14.184Z,13.05
2023-03-07T22:49:58.574Z,10.68
2023-03-07T22:52:25.452Z,11.38
2023-03-07T22:54:54.258Z,10.70
2023-03-07T22:57:26.380Z,10.45
2023-03-07T23:00:09.060Z,8.73
2023-03-07T23:02:48.851Z,9.40
2023-03-07T23:05:31.602Z,9.15
2023-03-07T23:08:11.346Z,8.45
2023-03-07T23:10:59.552Z,8.32
2023-03-07T23:13:38.247Z,8.55
2023-03-07T23:16:24.652Z,9.02
2023-03-07T23:19:09.356Z,9.07
2023-03-07T23:21:51.084Z,8.82
2023-03-07T23:24:34.001Z,9.48
2023-03-07T23:27:15.789Z,9.05
2023-03-07T23:29:51.919Z,9.00
2023-03-07T23:32:36.268Z,8.93
2023-03-07T23:35:20.568Z,8.48
2023-03-07T23:38:04.416Z,8.43
2023-03-07T23:40:55.513Z,9.15
2023-03-07T23:43:34.293Z,9.25
2023-03-07T23:46:13.362Z,9.90
2023-03-07T23:48:59.821Z,10.13
2023-03-07T23:51:46.707Z,9.75
2023-03-07T23:54:30.472Z,10.05
2023-03-07T23:57:13.890Z,9.98
2023-03-07T23:59:52.587Z,9.50
